sensor_id;sensor_type;location;lat;lon;timestamp;P1;durP1;ratioP1;P2;durP2;ratioP2
66400;SDS011;53211;45.040;38.788;2022-10-19T00:03:32;531.30;;;229.60;;
66400;SDS011;53211;45.040;38.788;2022-10-19T00:05:59;518.70;;;197.40;;
66400;SDS011;53211;45.040;38.788;2022-10-19T00:08:25;512.85;;;183.85;;
66400;SDS011;53211;45.040;38.788;2022-10-19T00:10:51;562.50;;;261.73;;
66400;SDS011;53211;45.040;38.788;2022-10-19T00:13:18;516.88;;;189.52;;
66400;SDS011;53211;45.040;38.788;2022-10-19T00:15:44;517.63;;;192.32;;
66400;SDS011;53211;45.040;38.788;2022-10-19T00:18:10;514.05;;;188.40;;
66400;SDS011;53211;45.040;38.788;2022-10-19T00:20:36;523.47;;;195.82;;
66400;SDS011;53211;45.040;38.788;2022-10-19T00:23:02;510.70;;;174.80;;
66400;SDS011;53211;45.040;38.788;2022-10-19T00:25:28;514.00;;;187.50;;
66400;SDS011;53211;45.040;38.788;2022-10-19T00:27:54;514.20;;;181.48;;
66400;SDS011;53211;45.040;38.788;2022-10-19T00:30:20;572.40;;;260.20;;
66400;SDS011;53211;45.040;38.788;2022-10-19T00:32:46;561.80;;;262.80;;
66400;SDS011;53211;45.040;38.788;2022-10-19T00:35:12;570.00;;;249.90;;
66400;SDS011;53211;45.040;38.788;2022-10-19T00:37:38;619.25;;;210.25;;
66400;SDS011;53211;45.040;38.788;2022-10-19T00:40:04;612.15;;;218.30;;
66400;SDS011;53211;45.040;38.788;2022-10-19T00:42:31;576.60;;;241.90;;
66400;SDS011;53211;45.040;38.788;2022-10-19T00:44:58;577.20;;;250.20;;
66400;SDS011;53211;45.040;38.788;2022-10-19T00:47:26;557.10;;;243.15;;
66400;SDS011;53211;45.040;38.788;2022-10-19T00:49:53;605.55;;;220.35;;
66400;SDS011;53211;45.040;38.788;2022-10-19T00:52:20;579.30;;;246.83;;
66400;SDS011;53211;45.040;38.788;2022-10-19T00:54:48;550.00;;;241.80;;
66400;SDS011;53211;45.040;38.788;2022-10-19T00:59:42;516.70;;;190.80;;
66400;SDS011;53211;45.040;38.788;2022-10-19T01:02:10;543.67;;;247.57;;
66400;SDS011;53211;45.040;38.788;2022-10-19T01:04:37;536.30;;;236.25;;
66400;SDS011;53211;45.040;38.788;2022-10-19T01:09:32;574.73;;;264.33;;
66400;SDS011;53211;45.040;38.788;2022-10-19T01:26:07;633.45;;;181.30;;
66400;SDS011;53211;45.040;38.788;2022-10-19T01:31:08;639.70;;;175.80;;
66400;SDS011;53211;45.040;38.788;2022-10-19T01:39:12;597.85;;;227.05;;
66400;SDS011;53211;45.040;38.788;2022-10-19T01:42:00;575.88;;;245.05;;
66400;SDS011;53211;45.040;38.788;2022-10-19T01:44:36;604.47;;;223.15;;
66400;SDS011;53211;45.040;38.788;2022-10-19T01:47:14;604.90;;;225.55;;
66400;SDS011;53211;45.040;38.788;2022-10-19T01:49:54;605.05;;;224.40;;
66400;SDS011;53211;45.040;38.788;2022-10-19T01:52:25;605.75;;;224.80;;
66400;SDS011;53211;45.040;38.788;2022-10-19T01:54:52;594.90;;;235.60;;
66400;SDS011;53211;45.040;38.788;2022-10-19T01:57:27;601.75;;;230.75;;
66400;SDS011;53211;45.040;38.788;2022-10-19T01:59:57;590.85;;;245.90;;
66400;SDS011;53211;45.040;38.788;2022-10-19T02:02:37;603.90;;;226.20;;
66400;SDS011;53211;45.040;38.788;2022-10-19T02:05:07;606.47;;;224.87;;
66400;SDS011;53211;45.040;38.788;2022-10-19T02:07:37;613.42;;;214.07;;
66400;SDS011;53211;45.040;38.788;2022-10-19T02:10:05;611.45;;;213.10;;
66400;SDS011;53211;45.040;38.788;2022-10-19T02:12:32;641.37;;;177.67;;
66400;SDS011;53211;45.040;38.788;2022-10-19T02:15:00;636.40;;;180.75;;
66400;SDS011;53211;45.040;38.788;2022-10-19T02:17:34;638.00;;;178.18;;
66400;SDS011;53211;45.040;38.788;2022-10-19T02:20:04;640.00;;;178.35;;
66400;SDS011;53211;45.040;38.788;2022-10-19T02:22:31;634.00;;;184.95;;
66400;SDS011;53211;45.040;38.788;2022-10-19T02:24:57;634.20;;;181.75;;
66400;SDS011;53211;45.040;38.788;2022-10-19T02:27:23;617.17;;;197.80;;
66400;SDS011;53211;45.040;38.788;2022-10-19T02:29:49;628.65;;;177.75;;
66400;SDS011;53211;45.040;38.788;2022-10-19T02:32:16;597.85;;;214.05;;
66400;SDS011;53211;45.040;38.788;2022-10-19T02:34:42;594.50;;;211.93;;
66400;SDS011;53211;45.040;38.788;2022-10-19T02:37:08;604.63;;;208.27;;
66400;SDS011;53211;45.040;38.788;2022-10-19T02:39:35;585.20;;;234.60;;
66400;SDS011;53211;45.040;38.788;2022-10-19T02:42:03;582.80;;;233.10;;
66400;SDS011;53211;45.040;38.788;2022-10-19T02:47:16;613.50;;;202.45;;
66400;SDS011;53211;45.040;38.788;2022-10-19T02:49:45;630.55;;;185.95;;
66400;SDS011;53211;45.040;38.788;2022-10-19T02:52:13;646.33;;;173.33;;
66400;SDS011;53211;45.040;38.788;2022-10-19T02:54:40;626.25;;;187.50;;
66400;SDS011;53211;45.040;38.788;2022-10-19T02:57:17;632.30;;;186.90;;
66400;SDS011;53211;45.040;38.788;2022-10-19T02:59:44;632.20;;;185.65;;
66400;SDS011;53211;45.040;38.788;2022-10-19T03:02:11;633.05;;;186.85;;
66400;SDS011;53211;45.040;38.788;2022-10-19T03:04:38;634.50;;;187.40;;
66400;SDS011;53211;45.040;38.788;2022-10-19T03:07:07;625.00;;;189.00;;
66400;SDS011;53211;45.040;38.788;2022-10-19T03:09:33;625.65;;;189.95;;
66400;SDS011;53211;45.040;38.788;2022-10-19T03:11:59;623.40;;;190.90;;
66400;SDS011;53211;45.040;38.788;2022-10-19T03:14:25;623.30;;;189.90;;
66400;SDS011;53211;45.040;38.788;2022-10-19T03:16:51;624.95;;;192.25;;
66400;SDS011;53211;45.040;38.788;2022-10-19T03:19:17;624.65;;;193.45;;
66400;SDS011;53211;45.040;38.788;2022-10-19T03:21:43;616.65;;;198.50;;
66400;SDS011;53211;45.040;38.788;2022-10-19T03:24:09;620.00;;;196.17;;
66400;SDS011;53211;45.040;38.788;2022-10-19T03:26:35;609.33;;;200.03;;
66400;SDS011;53211;45.040;38.788;2022-10-19T03:29:01;625.65;;;191.65;;
66400;SDS011;53211;45.040;38.788;2022-10-19T03:31:27;608.33;;;203.73;;
66400;SDS011;53211;45.040;38.788;2022-10-19T03:33:53;607.35;;;211.50;;
66400;SDS011;53211;45.040;38.788;2022-10-19T03:36:23;633.42;;;188.02;;
66400;SDS011;53211;45.040;38.788;2022-10-19T03:38:55;612.15;;;206.40;;
66400;SDS011;53211;45.040;38.788;2022-10-19T03:41:23;617.35;;;196.95;;
66400;SDS011;53211;45.040;38.788;2022-10-19T03:43:50;618.20;;;197.15;;
66400;SDS011;53211;45.040;38.788;2022-10-19T03:46:16;594.00;;;216.77;;
66400;SDS011;53211;45.040;38.788;2022-10-19T03:48:43;597.60;;;207.95;;
66400;SDS011;53211;45.040;38.788;2022-10-19T03:51:10;643.40;;;176.10;;
66400;SDS011;53211;45.040;38.788;2022-10-19T03:53:41;640.95;;;178.45;;
66400;SDS011;53211;45.040;38.788;2022-10-19T03:56:12;613.42;;;200.13;;
66400;SDS011;53211;45.040;38.788;2022-10-19T03:58:40;592.00;;;217.70;;
66400;SDS011;53211;45.040;38.788;2022-10-19T04:01:11;601.35;;;206.95;;
66400;SDS011;53211;45.040;38.788;2022-10-19T04:03:44;607.20;;;198.50;;
66400;SDS011;53211;45.040;38.788;2022-10-19T04:06:12;609.95;;;208.85;;
66400;SDS011;53211;45.040;38.788;2022-10-19T04:08:40;611.90;;;206.40;;
66400;SDS011;53211;45.040;38.788;2022-10-19T04:11:07;614.20;;;201.65;;
66400;SDS011;53211;45.040;38.788;2022-10-19T04:13:37;603.90;;;216.75;;
66400;SDS011;53211;45.040;38.788;2022-10-19T04:16:03;598.30;;;227.90;;
66400;SDS011;53211;45.040;38.788;2022-10-19T04:18:30;592.33;;;228.57;;
66400;SDS011;53211;45.040;38.788;2022-10-19T04:20:59;620.10;;;201.35;;
66400;SDS011;53211;45.040;38.788;2022-10-19T04:23:28;609.10;;;211.90;;
66400;SDS011;53211;45.040;38.788;2022-10-19T04:26:13;624.65;;;199.25;;
66400;SDS011;53211;45.040;38.788;2022-10-19T04:28:40;631.65;;;191.80;;
66400;SDS011;53211;45.040;38.788;2022-10-19T04:31:06;633.80;;;181.00;;
66400;SDS011;53211;45.040;38.788;2022-10-19T04:33:32;637.05;;;184.70;;
66400;SDS011;53211;45.040;38.788;2022-10-19T04:36:03;631.80;;;183.70;;
66400;SDS011;53211;45.040;38.788;2022-10-19T04:38:31;633.23;;;180.47;;
66400;SDS011;53211;45.040;38.788;2022-10-19T04:41:01;635.30;;;181.80;;
66400;SDS011;53211;45.040;38.788;2022-10-19T04:43:28;622.85;;;204.60;;
66400;SDS011;53211;45.040;38.788;2022-10-19T04:45:54;651.10;;;173.95;;
66400;SDS011;53211;45.040;38.788;2022-10-19T04:48:21;652.50;;;172.20;;
66400;SDS011;53211;45.040;38.788;2022-10-19T04:50:47;650.50;;;170.70;;
66400;SDS011;53211;45.040;38.788;2022-10-19T04:53:18;652.15;;;172.25;;
66400;SDS011;53211;45.040;38.788;2022-10-19T04:55:44;649.35;;;174.55;;
66400;SDS011;53211;45.040;38.788;2022-10-19T04:58:10;660.57;;;168.43;;
66400;SDS011;53211;45.040;38.788;2022-10-19T05:00:37;653.65;;;170.90;;
66400;SDS011;53211;45.040;38.788;2022-10-19T05:03:03;651.37;;;176.07;;
66400;SDS011;53211;45.040;38.788;2022-10-19T05:05:30;656.05;;;172.40;;
66400;SDS011;53211;45.040;38.788;2022-10-19T05:07:57;650.20;;;169.40;;
66400;SDS011;53211;45.040;38.788;2022-10-19T05:10:23;664.00;;;169.80;;
66400;SDS011;53211;45.040;38.788;2022-10-19T05:12:49;648.80;;;172.75;;
66400;SDS011;53211;45.040;38.788;2022-10-19T05:15:15;660.20;;;170.25;;
66400;SDS011;53211;45.040;38.788;2022-10-19T05:17:41;653.80;;;171.90;;
66400;SDS011;53211;45.040;38.788;2022-10-19T05:20:07;663.20;;;169.65;;
66400;SDS011;53211;45.040;38.788;2022-10-19T05:22:36;658.45;;;170.80;;
66400;SDS011;53211;45.040;38.788;2022-10-19T05:25:02;652.07;;;174.73;;
66400;SDS011;53211;45.040;38.788;2022-10-19T05:27:29;658.50;;;171.60;;
66400;SDS011;53211;45.040;38.788;2022-10-19T05:29:55;654.03;;;172.33;;
66400;SDS011;53211;45.040;38.788;2022-10-19T05:32:21;659.13;;;171.23;;
66400;SDS011;53211;45.040;38.788;2022-10-19T05:34:47;659.10;;;170.00;;
66400;SDS011;53211;45.040;38.788;2022-10-19T05:37:14;638.60;;;179.27;;
66400;SDS011;53211;45.040;38.788;2022-10-19T05:39:41;639.58;;;179.93;;
66400;SDS011;53211;45.040;38.788;2022-10-19T05:42:07;668.30;;;170.55;;
66400;SDS011;53211;45.040;38.788;2022-10-19T05:44:34;626.55;;;189.25;;
66400;SDS011;53211;45.040;38.788;2022-10-19T05:47:00;636.23;;;179.83;;
66400;SDS011;53211;45.040;38.788;2022-10-19T05:49:26;636.50;;;176.80;;
66400;SDS011;53211;45.040;38.788;2022-10-19T05:51:52;643.90;;;178.47;;
66400;SDS011;53211;45.040;38.788;2022-10-19T05:54:18;636.10;;;180.65;;
66400;SDS011;53211;45.040;38.788;2022-10-19T05:56:45;638.33;;;182.37;;
66400;SDS011;53211;45.040;38.788;2022-10-19T05:59:15;638.47;;;184.27;;
66400;SDS011;53211;45.040;38.788;2022-10-19T06:01:43;641.30;;;180.70;;
66400;SDS011;53211;45.040;38.788;2022-10-19T06:04:10;635.75;;;181.70;;
66400;SDS011;53211;45.040;38.788;2022-10-19T06:06:38;646.10;;;178.65;;
66400;SDS011;53211;45.040;38.788;2022-10-19T06:09:04;635.47;;;177.67;;
66400;SDS011;53211;45.040;38.788;2022-10-19T06:11:32;644.77;;;182.43;;
66400;SDS011;53211;45.040;38.788;2022-10-19T06:14:00;638.55;;;188.40;;
66400;SDS011;53211;45.040;38.788;2022-10-19T06:16:29;650.63;;;179.67;;
66400;SDS011;53211;45.040;38.788;2022-10-19T06:18:57;638.20;;;187.50;;
66400;SDS011;53211;45.040;38.788;2022-10-19T06:21:25;642.75;;;183.70;;
66400;SDS011;53211;45.040;38.788;2022-10-19T06:23:56;643.05;;;187.90;;
66400;SDS011;53211;45.040;38.788;2022-10-19T06:26:25;640.75;;;189.00;;
66400;SDS011;53211;45.040;38.788;2022-10-19T06:28:53;645.55;;;185.50;;
66400;SDS011;53211;45.040;38.788;2022-10-19T06:31:20;636.90;;;192.25;;
66400;SDS011;53211;45.040;38.788;2022-10-19T06:33:46;635.30;;;192.80;;
66400;SDS011;53211;45.040;38.788;2022-10-19T06:36:17;640.55;;;190.95;;
66400;SDS011;53211;45.040;38.788;2022-10-19T06:38:45;648.67;;;184.03;;
66400;SDS011;53211;45.040;38.788;2022-10-19T06:41:11;633.50;;;193.35;;
66400;SDS011;53211;45.040;38.788;2022-10-19T06:43:38;635.70;;;194.15;;
66400;SDS011;53211;45.040;38.788;2022-10-19T06:46:05;655.80;;;184.65;;
66400;SDS011;53211;45.040;38.788;2022-10-19T06:48:32;628.50;;;197.65;;
66400;SDS011;53211;45.040;38.788;2022-10-19T06:50:59;628.15;;;192.85;;
66400;SDS011;53211;45.040;38.788;2022-10-19T06:53:27;633.45;;;194.00;;
66400;SDS011;53211;45.040;38.788;2022-10-19T06:56:00;641.53;;;188.73;;
66400;SDS011;53211;45.040;38.788;2022-10-19T06:58:28;640.40;;;185.55;;
66400;SDS011;53211;45.040;38.788;2022-10-19T07:00:55;643.93;;;187.97;;
66400;SDS011;53211;45.040;38.788;2022-10-19T07:03:22;650.15;;;174.30;;
66400;SDS011;53211;45.040;38.788;2022-10-19T07:06:07;664.10;;;176.35;;
66400;SDS011;53211;45.040;38.788;2022-10-19T07:08:35;670.90;;;178.60;;
66400;SDS011;53211;45.040;38.788;2022-10-19T07:11:04;658.70;;;177.80;;
66400;SDS011;53211;45.040;38.788;2022-10-19T07:13:32;667.35;;;175.65;;
66400;SDS011;53211;45.040;38.788;2022-10-19T07:16:05;674.25;;;170.50;;
66400;SDS011;53211;45.040;38.788;2022-10-19T07:18:33;705.03;;;158.57;;
66400;SDS011;53211;45.040;38.788;2022-10-19T07:21:01;655.90;;;178.85;;
66400;SDS011;53211;45.040;38.788;2022-10-19T07:23:30;668.70;;;169.70;;
66400;SDS011;53211;45.040;38.788;2022-10-19T07:25:57;670.60;;;171.35;;
66400;SDS011;53211;45.040;38.788;2022-10-19T07:28:28;672.60;;;172.87;;
66400;SDS011;53211;45.040;38.788;2022-10-19T07:30:55;669.10;;;171.20;;
66400;SDS011;53211;45.040;38.788;2022-10-19T07:33:21;675.40;;;173.53;;
66400;SDS011;53211;45.040;38.788;2022-10-19T07:35:47;674.80;;;171.90;;
66400;SDS011;53211;45.040;38.788;2022-10-19T07:38:13;673.50;;;171.50;;
66400;SDS011;53211;45.040;38.788;2022-10-19T07:40:39;674.30;;;173.05;;
66400;SDS011;53211;45.040;38.788;2022-10-19T07:43:05;677.87;;;172.50;;
66400;SDS011;53211;45.040;38.788;2022-10-19T07:45:31;677.10;;;172.80;;
66400;SDS011;53211;45.040;38.788;2022-10-19T07:47:57;676.70;;;173.85;;
66400;SDS011;53211;45.040;38.788;2022-10-19T07:50:24;677.08;;;173.90;;
66400;SDS011;53211;45.040;38.788;2022-10-19T07:52:52;679.70;;;174.10;;
66400;SDS011;53211;45.040;38.788;2022-10-19T07:55:18;712.43;;;159.83;;
66400;SDS011;53211;45.040;38.788;2022-10-19T07:57:47;680.15;;;172.10;;
66400;SDS011;53211;45.040;38.788;2022-10-19T08:00:15;679.80;;;174.50;;
66400;SDS011;53211;45.040;38.788;2022-10-19T08:02:42;683.50;;;172.82;;
66400;SDS011;53211;45.040;38.788;2022-10-19T08:05:08;680.25;;;173.25;;
66400;SDS011;53211;45.040;38.788;2022-10-19T08:07:35;679.63;;;171.63;;
66400;SDS011;53211;45.040;38.788;2022-10-19T08:10:01;684.20;;;174.63;;
66400;SDS011;53211;45.040;38.788;2022-10-19T08:12:28;681.70;;;175.97;;
66400;SDS011;53211;45.040;38.788;2022-10-19T08:14:54;683.95;;;172.20;;
66400;SDS011;53211;45.040;38.788;2022-10-19T08:17:20;684.90;;;170.40;;
66400;SDS011;53211;45.040;38.788;2022-10-19T08:19:46;685.65;;;171.15;;
66400;SDS011;53211;45.040;38.788;2022-10-19T08:22:12;687.77;;;172.33;;
66400;SDS011;53211;45.040;38.788;2022-10-19T08:24:39;665.15;;;186.05;;
66400;SDS011;53211;45.040;38.788;2022-10-19T08:27:05;661.80;;;189.35;;
66400;SDS011;53211;45.040;38.788;2022-10-19T08:29:31;665.20;;;185.15;;
66400;SDS011;53211;45.040;38.788;2022-10-19T08:31:57;669.95;;;185.10;;
66400;SDS011;53211;45.040;38.788;2022-10-19T08:34:23;670.17;;;182.77;;
66400;SDS011;53211;45.040;38.788;2022-10-19T08:36:49;672.30;;;184.25;;
66400;SDS011;53211;45.040;38.788;2022-10-19T08:39:15;684.10;;;178.20;;
66400;SDS011;53211;45.040;38.788;2022-10-19T08:42:02;672.10;;;184.15;;
66400;SDS011;53211;45.040;38.788;2022-10-19T08:52:48;658.00;;;194.55;;
66400;SDS011;53211;45.040;38.788;2022-10-19T08:55:25;645.43;;;201.87;;
66400;SDS011;53211;45.040;38.788;2022-10-19T08:58:06;666.15;;;180.80;;
66400;SDS011;53211;45.040;38.788;2022-10-19T09:06:17;700.50;;;160.80;;
66400;SDS011;53211;45.040;38.788;2022-10-19T09:09:00;689.90;;;169.50;;
66400;SDS011;53211;45.040;38.788;2022-10-19T09:11:27;658.00;;;185.00;;
66400;SDS011;53211;45.040;38.788;2022-10-19T09:14:13;682.90;;;169.30;;
66400;SDS011;53211;45.040;38.788;2022-10-19T09:16:53;654.63;;;187.50;;
66400;SDS011;53211;45.040;38.788;2022-10-19T09:19:25;659.07;;;180.27;;
66400;SDS011;53211;45.040;38.788;2022-10-19T09:21:55;660.75;;;181.55;;
66400;SDS011;53211;45.040;38.788;2022-10-19T09:27:00;675.00;;;173.27;;
66400;SDS011;53211;45.040;38.788;2022-10-19T09:29:36;670.10;;;171.85;;
66400;SDS011;53211;45.040;38.788;2022-10-19T09:32:13;674.55;;;171.10;;
66400;SDS011;53211;45.040;38.788;2022-10-19T09:37:46;675.70;;;174.80;;
66400;SDS011;53211;45.040;38.788;2022-10-19T09:40:18;677.00;;;171.50;;
66400;SDS011;53211;45.040;38.788;2022-10-19T09:42:47;706.70;;;164.95;;
66400;SDS011;53211;45.040;38.788;2022-10-19T09:48:14;709.60;;;158.60;;
66400;SDS011;53211;45.040;38.788;2022-10-19T09:50:45;706.50;;;158.15;;
66400;SDS011;53211;45.040;38.788;2022-10-19T09:53:19;699.00;;;160.80;;
66400;SDS011;53211;45.040;38.788;2022-10-19T09:55:47;702.57;;;163.50;;
66400;SDS011;53211;45.040;38.788;2022-10-19T09:58:20;708.40;;;164.20;;
66400;SDS011;53211;45.040;38.788;2022-10-19T10:00:51;703.70;;;162.60;;
66400;SDS011;53211;45.040;38.788;2022-10-19T10:03:37;707.60;;;160.20;;
66400;SDS011;53211;45.040;38.788;2022-10-19T10:06:05;712.55;;;161.80;;
66400;SDS011;53211;45.040;38.788;2022-10-19T10:08:38;706.30;;;163.07;;
66400;SDS011;53211;45.040;38.788;2022-10-19T10:13:41;722.30;;;157.00;;
66400;SDS011;53211;45.040;38.788;2022-10-19T10:16:13;712.70;;;159.60;;
66400;SDS011;53211;45.040;38.788;2022-10-19T10:18:59;728.00;;;155.80;;
66400;SDS011;53211;45.040;38.788;2022-10-19T10:21:29;728.30;;;155.10;;
66400;SDS011;53211;45.040;38.788;2022-10-19T10:24:03;721.60;;;160.82;;
66400;SDS011;53211;45.040;38.788;2022-10-19T10:26:45;775.50;;;149.20;;
66400;SDS011;53211;45.040;38.788;2022-10-19T10:29:23;774.43;;;147.73;;
66400;SDS011;53211;45.040;38.788;2022-10-19T10:32:12;776.20;;;149.55;;
66400;SDS011;53211;45.040;38.788;2022-10-19T10:34:38;779.28;;;149.93;;
66400;SDS011;53211;45.040;38.788;2022-10-19T10:37:29;781.70;;;149.20;;
66400;SDS011;53211;45.040;38.788;2022-10-19T10:40:04;760.80;;;151.13;;
66400;SDS011;53211;45.040;38.788;2022-10-19T10:42:40;761.77;;;154.40;;
66400;SDS011;53211;45.040;38.788;2022-10-19T10:45:19;752.47;;;155.00;;
66400;SDS011;53211;45.040;38.788;2022-10-19T10:47:47;767.30;;;153.60;;
66400;SDS011;53211;45.040;38.788;2022-10-19T10:50:15;789.20;;;152.70;;
66400;SDS011;53211;45.040;38.788;2022-10-19T10:52:58;787.15;;;151.50;;
66400;SDS011;53211;45.040;38.788;2022-10-19T10:55:29;809.40;;;152.35;;
66400;SDS011;53211;45.040;38.788;2022-10-19T10:58:01;849.83;;;132.07;;
66400;SDS011;53211;45.040;38.788;2022-10-19T11:00:44;783.17;;;151.77;;
66400;SDS011;53211;45.040;38.788;2022-10-19T11:03:18;767.55;;;158.15;;
66400;SDS011;53211;45.040;38.788;2022-10-19T11:05:53;755.70;;;162.68;;
66400;SDS011;53211;45.040;38.788;2022-10-19T11:11:09;672.25;;;207.65;;
66400;SDS011;53211;45.040;38.788;2022-10-19T11:14:03;684.40;;;196.95;;
66400;SDS011;53211;45.040;38.788;2022-10-19T11:16:41;665.60;;;201.65;;
66400;SDS011;53211;45.040;38.788;2022-10-19T11:19:25;710.20;;;179.50;;
66400;SDS011;53211;45.040;38.788;2022-10-19T11:30:13;718.40;;;176.55;;
66400;SDS011;53211;45.040;38.788;2022-10-19T11:35:58;667.53;;;210.70;;
66400;SDS011;53211;45.040;38.788;2022-10-19T11:38:46;699.63;;;191.60;;
66400;SDS011;53211;45.040;38.788;2022-10-19T11:58:34;729.60;;;173.60;;
66400;SDS011;53211;45.040;38.788;2022-10-19T12:14:39;705.80;;;192.70;;
66400;SDS011;53211;45.040;38.788;2022-10-19T12:17:08;688.70;;;196.67;;
66400;SDS011;53211;45.040;38.788;2022-10-19T12:19:45;695.20;;;196.15;;
66400;SDS011;53211;45.040;38.788;2022-10-19T12:22:18;779.03;;;159.05;;
66400;SDS011;53211;45.040;38.788;2022-10-19T12:24:48;757.70;;;164.10;;
66400;SDS011;53211;45.040;38.788;2022-10-19T12:27:17;728.60;;;172.60;;
66400;SDS011;53211;45.040;38.788;2022-10-19T12:29:52;721.20;;;184.25;;
66400;SDS011;53211;45.040;38.788;2022-10-19T12:32:20;683.75;;;213.20;;
66400;SDS011;53211;45.040;38.788;2022-10-19T12:34:50;683.37;;;193.80;;
66400;SDS011;53211;45.040;38.788;2022-10-19T12:37:24;730.30;;;184.80;;
66400;SDS011;53211;45.040;38.788;2022-10-19T12:58:26;438.30;;;130.40;;
66400;SDS011;53211;45.040;38.788;2022-10-19T13:01:04;597.60;;;241.10;;
66400;SDS011;53211;45.040;38.788;2022-10-19T13:03:36;684.20;;;231.70;;
66400;SDS011;53211;45.040;38.788;2022-10-19T13:06:10;705.45;;;231.10;;
66400;SDS011;53211;45.040;38.788;2022-10-19T13:08:55;638.65;;;292.20;;
66400;SDS011;53211;45.040;38.788;2022-10-19T13:13:52;596.35;;;257.40;;
66400;SDS011;53211;45.040;38.788;2022-10-19T13:40:37;609.50;;;273.10;;
66400;SDS011;53211;45.040;38.788;2022-10-19T13:45:59;623.20;;;253.90;;
66400;SDS011;53211;45.040;38.788;2022-10-19T13:48:48;636.10;;;246.70;;
66400;SDS011;53211;45.040;38.788;2022-10-19T13:57:18;652.95;;;231.00;;
66400;SDS011;53211;45.040;38.788;2022-10-19T14:00:08;670.05;;;210.05;;
66400;SDS011;53211;45.040;38.788;2022-10-19T14:05:36;687.60;;;194.25;;
66400;SDS011;53211;45.040;38.788;2022-10-19T14:11:01;655.33;;;213.93;;
66400;SDS011;53211;45.040;38.788;2022-10-19T14:13:49;648.97;;;218.53;;
66400;SDS011;53211;45.040;38.788;2022-10-19T14:16:55;678.25;;;188.25;;
66400;SDS011;53211;45.040;38.788;2022-10-19T14:19:27;658.70;;;208.27;;
66400;SDS011;53211;45.040;38.788;2022-10-19T14:22:16;660.85;;;209.60;;
66400;SDS011;53211;45.040;38.788;2022-10-19T14:24:45;646.67;;;217.87;;
66400;SDS011;53211;45.040;38.788;2022-10-19T14:27:14;660.50;;;203.40;;
66400;SDS011;53211;45.040;38.788;2022-10-19T14:29:50;646.10;;;210.40;;
66400;SDS011;53211;45.040;38.788;2022-10-19T14:32:20;628.30;;;225.90;;
66400;SDS011;53211;45.040;38.788;2022-10-19T14:34:49;653.70;;;205.90;;
66400;SDS011;53211;45.040;38.788;2022-10-19T14:39:55;647.70;;;210.30;;
66400;SDS011;53211;45.040;38.788;2022-10-19T14:42:34;609.60;;;268.60;;
66400;SDS011;53211;45.040;38.788;2022-10-19T14:45:27;628.60;;;248.63;;
66400;SDS011;53211;45.040;38.788;2022-10-19T14:47:58;631.60;;;238.20;;
66400;SDS011;53211;45.040;38.788;2022-10-19T14:50:40;683.37;;;194.40;;
66400;SDS011;53211;45.040;38.788;2022-10-19T14:56:23;637.17;;;212.47;;
66400;SDS011;53211;45.040;38.788;2022-10-19T14:58:52;657.85;;;205.25;;
66400;SDS011;53211;45.040;38.788;2022-10-19T15:01:46;607.67;;;266.55;;
66400;SDS011;53211;45.040;38.788;2022-10-19T15:04:21;537.35;;;194.55;;
66400;SDS011;53211;45.040;38.788;2022-10-19T15:06:50;545.08;;;218.20;;
66400;SDS011;53211;45.040;38.788;2022-10-19T15:09:23;562.43;;;250.77;;
66400;SDS011;53211;45.040;38.788;2022-10-19T15:11:53;595.50;;;249.25;;
66400;SDS011;53211;45.040;38.788;2022-10-19T15:14:23;562.70;;;240.77;;
66400;SDS011;53211;45.040;38.788;2022-10-19T15:16:54;543.50;;;217.30;;
66400;SDS011;53211;45.040;38.788;2022-10-19T15:24:34;635.17;;;224.17;;
66400;SDS011;53211;45.040;38.788;2022-10-19T15:27:07;600.80;;;260.60;;
66400;SDS011;53211;45.040;38.788;2022-10-19T15:29:56;634.67;;;201.37;;
66400;SDS011;53211;45.040;38.788;2022-10-19T15:32:28;614.15;;;249.70;;
66400;SDS011;53211;45.040;38.788;2022-10-19T15:34:57;574.20;;;265.30;;
66400;SDS011;53211;45.040;38.788;2022-10-19T15:37:23;625.25;;;225.95;;
66400;SDS011;53211;45.040;38.788;2022-10-19T15:39:49;609.10;;;232.17;;
66400;SDS011;53211;45.040;38.788;2022-10-19T15:42:36;640.40;;;214.60;;
66400;SDS011;53211;45.040;38.788;2022-10-19T15:45:27;612.40;;;236.80;;
66400;SDS011;53211;45.040;38.788;2022-10-19T15:50:55;566.70;;;259.70;;
66400;SDS011;53211;45.040;38.788;2022-10-19T15:53:22;553.30;;;244.90;;
66400;SDS011;53211;45.040;38.788;2022-10-19T15:55:49;588.10;;;250.80;;
66400;SDS011;53211;45.040;38.788;2022-10-19T15:58:16;586.05;;;261.90;;
66400;SDS011;53211;45.040;38.788;2022-10-19T16:00:42;573.10;;;259.50;;
66400;SDS011;53211;45.040;38.788;2022-10-19T16:03:08;621.30;;;223.40;;
66400;SDS011;53211;45.040;38.788;2022-10-19T16:05:34;613.00;;;235.50;;
66400;SDS011;53211;45.040;38.788;2022-10-19T16:08:01;592.07;;;249.40;;
66400;SDS011;53211;45.040;38.788;2022-10-19T16:10:27;577.10;;;262.83;;
66400;SDS011;53211;45.040;38.788;2022-10-19T16:12:53;610.72;;;232.70;;
66400;SDS011;53211;45.040;38.788;2022-10-19T16:15:20;653.50;;;196.73;;
66400;SDS011;53211;45.040;38.788;2022-10-19T16:17:48;609.53;;;239.33;;
66400;SDS011;53211;45.040;38.788;2022-10-19T16:20:16;632.00;;;213.05;;
66400;SDS011;53211;45.040;38.788;2022-10-19T16:22:43;634.15;;;212.90;;
66400;SDS011;53211;45.040;38.788;2022-10-19T16:25:09;614.15;;;235.50;;
66400;SDS011;53211;45.040;38.788;2022-10-19T16:27:36;609.03;;;232.40;;
66400;SDS011;53211;45.040;38.788;2022-10-19T16:30:03;603.50;;;240.90;;
66400;SDS011;53211;45.040;38.788;2022-10-19T16:32:29;628.55;;;238.25;;
66400;SDS011;53211;45.040;38.788;2022-10-19T16:34:55;662.20;;;203.63;;
66400;SDS011;53211;45.040;38.788;2022-10-19T16:37:21;682.13;;;177.57;;
66400;SDS011;53211;45.040;38.788;2022-10-19T16:39:47;643.70;;;209.40;;
66400;SDS011;53211;45.040;38.788;2022-10-19T16:42:13;638.00;;;218.80;;
66400;SDS011;53211;45.040;38.788;2022-10-19T16:44:39;608.10;;;264.40;;
66400;SDS011;53211;45.040;38.788;2022-10-19T16:47:05;664.07;;;209.47;;
66400;SDS011;53211;45.040;38.788;2022-10-19T16:49:31;727.70;;;173.00;;
66400;SDS011;53211;45.040;38.788;2022-10-19T16:52:00;687.95;;;189.05;;
66400;SDS011;53211;45.040;38.788;2022-10-19T16:54:26;677.23;;;205.10;;
66400;SDS011;53211;45.040;38.788;2022-10-19T16:56:57;644.45;;;221.60;;